Time;durP1;ratioP1;P1;durP2;ratioP2;P2;SDS_P1;SDS_P2;PMS_P1;PMS_P2;Temp;Humidity;BMP_temperature;BMP_pressure;BME280_temperature;BME280_humidity;BME280_pressure;Samples;Min_cycle;Max_cycle;Signal;HPM_P1;HPM_P2
2022/03/11 00:02:21;;;;;;;13.83;9.00;;;7.60;46.60;;;;;;5094369;28;20451;-58
2022/03/11 00:04:49;;;;;;;12.40;8.40;;;7.50;46.80;;;;;;5094037;28;20447;-58
2022/03/11 00:07:16;;;;;;;11.23;8.00;;;7.50;47.20;;;;;;5093894;28;20474;-58
2022/03/11 00:09:43;;;;;;;10.50;8.50;;;7.50;47.30;;;;;;5094149;28;20447;-58
2022/03/11 00:12:11;;;;;;;12.03;9.57;;;7.40;47.20;;;;;;5094199;28;20522;-57
2022/03/11 00:14:38;;;;;;;10.00;9.00;;;7.40;47.50;;;;;;5093741;28;20443;-57
2022/03/11 00:17:06;;;;;;;10.00;8.37;;;7.40;47.50;;;;;;5093363;28;20464;-58
2022/03/11 00:19:34;;;;;;;10.03;7.80;;;7.40;47.60;;;;;;5093754;28;20451;-58
2022/03/11 00:22:02;;;;;;;13.77;9.83;;;7.40;48.10;;;;;;5093742;28;20841;-57
2022/03/11 00:24:29;;;;;;;13.70;8.97;;;7.30;48.30;;;;;;5093874;28;20448;-58
2022/03/11 00:26:56;;;;;;;12.07;8.40;;;7.40;48.40;;;;;;5093627;28;20467;-57
2022/03/11 00:29:23;;;;;;;10.97;9.40;;;7.40;48.30;;;;;;5093979;28;20479;-57
2022/03/11 00:31:50;;;;;;;12.23;8.60;;;7.30;48.70;;;;;;5094375;28;20515;-57
2022/03/11 00:34:18;;;;;;;11.43;9.47;;;7.30;48.60;;;;;;5093685;28;20784;-57
2022/03/11 00:36:51;;;;;;;13.40;9.00;;;7.30;48.90;;;;;;5093865;28;20471;-57
2022/03/11 00:39:18;;;;;;;15.20;9.53;;;7.30;49.20;;;;;;5093555;28;20451;-57
2022/03/11 00:41:45;;;;;;;12.50;9.70;;;7.20;49.30;;;;;;5093544;28;20440;-57
2022/03/11 00:44:13;;;;;;;14.87;9.20;;;7.20;49.30;;;;;;5093845;28;20449;-57
2022/03/11 00:46:40;;;;;;;13.93;10.30;;;7.20;52.70;;;;;;5093445;28;20528;-57
2022/03/11 00:49:07;;;;;;;12.37;10.70;;;7.20;54.10;;;;;;5093539;28;20451;-56
2022/03/11 00:51:34;;;;;;;13.00;9.63;;;7.20;52.10;;;;;;5094586;28;20502;-57
2022/03/11 00:54:03;;;;;;;12.57;10.13;;;7.00;49.80;;;;;;5093425;28;20447;-57
2022/03/11 00:56:31;;;;;;;12.97;9.70;;;7.00;50.10;;;;;;5093631;28;20860;-56
2022/03/11 00:58:58;;;;;;;14.30;10.67;;;6.90;50.10;;;;;;5093366;28;20447;-57
2022/03/11 01:01:25;;;;;;;13.43;9.87;;;6.90;50.70;;;;;;5094221;28;20801;-57
2022/03/11 01:03:52;;;;;;;13.10;10.53;;;6.90;50.70;;;;;;5093417;28;20428;-57
2022/03/11 01:06:19;;;;;;;14.20;11.00;;;6.90;50.60;;;;;;5094300;28;20564;-57
2022/03/11 01:08:47;;;;;;;12.90;8.80;;;6.90;50.90;;;;;;5093260;28;20450;-57
2022/03/11 01:11:15;;;;;;;20.17;11.70;;;6.80;51.20;;;;;;5093157;28;21007;-57
2022/03/11 01:13:42;;;;;;;16.73;9.97;;;6.70;50.90;;;;;;5093560;28;20887;-57
2022/03/11 01:16:10;;;;;;;14.23;10.97;;;6.70;51.50;;;;;;5093328;28;20440;-57
2022/03/11 01:18:37;;;;;;;10.57;9.13;;;6.60;51.50;;;;;;5093180;28;20910;-57
2022/03/11 01:21:04;;;;;;;12.60;10.70;;;6.50;51.80;;;;;;5093241;28;20440;-57
2022/03/11 01:23:31;;;;;;;22.43;10.93;;;6.50;51.90;;;;;;5093176;28;20451;-57
2022/03/11 01:25:58;;;;;;;14.53;10.30;;;6.40;52.10;;;;;;5093493;28;20447;-57
2022/03/11 01:28:26;;;;;;;14.80;11.03;;;6.20;52.80;;;;;;5095313;28;20454;-58
2022/03/11 01:30:54;;;;;;;15.60;10.83;;;6.20;52.90;;;;;;5096990;28;20469;-58
2022/03/11 01:33:21;;;;;;;15.23;10.87;;;6.20;53.30;;;;;;5097205;28;20801;-57
2022/03/11 01:35:48;;;;;;;19.07;11.87;;;6.20;53.50;;;;;;5097127;28;20450;-58
2022/03/11 01:38:15;;;;;;;13.53;11.33;;;6.20;53.40;;;;;;5096757;28;20475;-58
2022/03/11 01:40:42;;;;;;;15.67;11.80;;;6.20;53.80;;;;;;5097101;28;20466;-57
2022/03/11 01:43:16;;;;;;;22.70;13.73;;;6.20;53.50;;;;;;5097051;28;20516;-57
2022/03/11 01:45:45;;;;;;;18.60;12.47;;;6.20;54.00;;;;;;5096658;28;20451;-57
2022/03/11 01:48:13;;;;;;;18.50;12.30;;;6.20;54.20;;;;;;5096564;28;20550;-57
2022/03/11 01:50:40;;;;;;;15.30;11.13;;;6.20;54.20;;;;;;5096466;28;21076;-57
2022/03/11 01:53:09;;;;;;;15.33;11.93;;;6.20;54.30;;;;;;5096763;28;20455;-57
2022/03/11 01:55:37;;;;;;;19.50;12.53;;;6.10;54.50;;;;;;5096871;28;20858;-57
2022/03/11 01:58:05;;;;;;;13.27;11.50;;;6.10;54.80;;;;;;5096724;28;20463;-57
2022/03/11 02:00:34;;;;;;;16.33;13.03;;;;;;;;;;5096694;28;20466;-57
2022/03/11 02:03:03;;;;;;;15.93;12.17;;;5.90;54.80;;;;;;5096689;28;20454;-57
2022/03/11 02:05:30;;;;;;;16.90;12.67;;;5.90;55.30;;;;;;5096600;28;20447;-57
2022/03/11 02:07:58;;;;;;;19.70;12.60;;;5.90;61.00;;;;;;5096191;28;20474;-57
2022/03/11 02:10:26;;;;;;;14.00;11.03;;;5.90;60.70;;;;;;5096136;28;20451;-57
2022/03/11 02:12:53;;;;;;;16.53;12.13;;;5.90;63.30;;;;;;5096234;28;20428;-57
2022/03/11 02:15:21;;;;;;;16.53;12.23;;;5.80;64.60;;;;;;5096454;28;20451;-57
2022/03/11 02:17:48;;;;;;;20.33;12.93;;;5.80;61.80;;;;;;5096008;28;20478;-57
2022/03/11 02:20:16;;;;;;;17.43;11.93;;;5.80;56.90;;;;;;5096038;28;20447;-57
2022/03/11 02:22:46;;;;;;;15.67;12.80;;;5.70;57.20;;;;;;5095970;28;20452;-57
2022/03/11 02:25:15;;;;;;;14.50;11.80;;;5.70;56.70;;;;;;5096379;28;20825;-57
2022/03/11 02:27:42;;;;;;;18.13;13.43;;;5.70;57.20;;;;;;5096066;28;20467;-57
2022/03/11 02:30:14;;;;;;;18.50;14.40;;;5.70;57.20;;;;;;5095617;28;20483;-57
2022/03/11 02:32:45;;;;;;;19.10;13.20;;;5.70;57.00;;;;;;5096203;28;20427;-58
2022/03/11 02:35:12;;;;;;;17.33;14.07;;;5.70;57.10;;;;;;5095768;28;20534;-58
2022/03/11 02:37:39;;;;;;;20.70;15.10;;;5.60;56.90;;;;;;5095928;28;20470;-57
2022/03/11 02:40:08;;;;;;;19.17;14.17;;;5.60;56.80;;;;;;5096275;28;20444;-57
2022/03/11 02:42:36;;;;;;;15.80;14.10;;;5.60;57.10;;;;;;5095903;28;20538;-57
2022/03/11 02:45:04;;;;;;;17.50;12.90;;;;;;;;;;5095835;28;20439;-57
2022/03/11 02:47:32;;;;;;;20.93;14.20;;;5.40;56.90;;;;;;5095470;28;20470;-57
2022/03/11 02:49:59;;;;;;;17.23;12.67;;;5.40;57.20;;;;;;5095520;28;20812;-57
2022/03/11 02:52:28;;;;;;;14.90;13.20;;;5.30;57.30;;;;;;5095324;28;21012;-57
2022/03/11 02:54:56;;;;;;;17.40;13.43;;;5.30;57.50;;;;;;5095523;28;20468;-58
2022/03/11 02:57:23;;;;;;;17.23;13.17;;;5.30;57.30;;;;;;5095533;28;20554;-57
2022/03/11 02:59:51;;;;;;;20.40;13.53;;;5.30;57.50;;;;;;5095180;28;20938;-57
2022/03/11 03:02:18;;;;;;;23.40;13.90;;;5.30;57.90;;;;;;5095427;28;20443;-57
2022/03/11 03:04:45;;;;;;;26.63;17.00;;;5.30;58.30;;;;;;5095226;28;20439;-57
2022/03/11 03:07:13;;;;;;;19.30;15.63;;;5.30;57.90;;;;;;5095063;28;20459;-57
2022/03/11 03:09:41;;;;;;;25.30;15.63;;;5.20;58.00;;;;;;5095064;28;20453;-58
2022/03/11 03:12:10;;;;;;;22.20;15.73;;;5.20;58.40;;;;;;5095253;28;20471;-57
2022/03/11 03:14:38;;;;;;;18.00;15.70;;;5.20;58.10;;;;;;5095238;28;20444;-57
2022/03/11 03:17:07;;;;;;;22.60;16.00;;;5.20;58.40;;;;;;5095200;28;20793;-58
2022/03/11 03:19:35;;;;;;;24.37;16.47;;;5.20;58.40;;;;;;5095172;28;20449;-57
2022/03/11 03:22:03;;;;;;;22.17;15.50;;;5.10;58.20;;;;;;5095114;28;20446;-57
2022/03/11 03:24:31;;;;;;;22.30;16.57;;;5.00;58.30;;;;;;5094754;28;20446;-57
2022/03/11 03:26:58;;;;;;;23.03;16.90;;;5.00;58.40;;;;;;5094730;28;20464;-57
2022/03/11 03:29:25;;;;;;;23.00;16.40;;;5.00;58.30;;;;;;5094499;28;20493;-58
2022/03/11 03:31:57;;;;;;;20.97;14.80;;;5.00;58.20;;;;;;5094594;28;20479;-57
2022/03/11 03:34:28;;;;;;;26.60;15.57;;;4.90;58.20;;;;;;5094990;28;20432;-57
2022/03/11 03:36:56;;;;;;;22.37;15.83;;;4.90;58.30;;;;;;5094840;28;20547;-57
2022/03/11 03:39:23;;;;;;;20.60;15.07;;;4.90;58.40;;;;;;5094499;28;20454;-57
2022/03/11 03:41:50;;;;;;;22.27;15.30;;;4.80;58.40;;;;;;5094773;28;20531;-57
2022/03/11 03:44:18;;;;;;;24.10;16.93;;;4.80;58.30;;;;;;5094749;28;20534;-57
2022/03/11 03:46:45;;;;;;;22.80;14.97;;;4.90;58.80;;;;;;5094671;28;20473;-57
2022/03/11 03:49:12;;;;;;;21.73;15.93;;;4.90;58.40;;;;;;5095198;28;20451;-57
2022/03/11 03:51:40;;;;;;;20.90;16.30;;;4.80;58.50;;;;;;5093447;28;20920;-57
2022/03/11 03:54:09;;;;;;;21.40;15.40;;;4.80;58.40;;;;;;5094149;28;20459;-57
2022/03/11 03:56:37;;;;;;;21.33;16.37;;;4.70;58.30;;;;;;5094504;28;20491;-57
2022/03/11 03:59:04;;;;;;;20.47;15.40;;;4.80;58.60;;;;;;5094444;28;20452;-57
2022/03/11 04:01:33;;;;;;;20.20;15.97;;;4.70;58.50;;;;;;5094420;28;20440;-58
2022/03/11 04:04:00;;;;;;;20.47;15.10;;;4.60;58.30;;;;;;5094401;28;20451;-58
2022/03/11 04:06:28;;;;;;;24.30;16.63;;;4.70;58.60;;;;;;5093983;28;20550;-58
2022/03/11 04:08:57;;;;;;;27.77;16.00;;;4.70;58.70;;;;;;5093951;28;20486;-58
2022/03/11 04:11:24;;;;;;;24.07;15.90;;;4.70;58.30;;;;;;5093877;28;21042;-57
2022/03/11 04:13:52;;;;;;;23.80;16.50;;;4.60;58.50;;;;;;5094238;28;20451;-57
2022/03/11 04:16:20;;;;;;;24.97;17.27;;;4.60;58.80;;;;;;5093803;28;20471;-57
2022/03/11 04:18:47;;;;;;;24.60;16.73;;;4.50;58.30;;;;;;5094112;28;20447;-58
2022/03/11 04:21:14;;;;;;;21.20;14.77;;;4.40;58.30;;;;;;5093827;28;20451;-57
2022/03/11 04:23:41;;;;;;;21.07;14.40;;;4.50;58.70;;;;;;5093748;28;20933;-57
2022/03/11 04:26:10;;;;;;;18.03;15.63;;;4.40;58.30;;;;;;5094132;28;20451;-58
2022/03/11 04:28:38;;;;;;;24.87;15.60;;;;;;;;;;5093582;28;20479;-57
2022/03/11 04:31:07;;;;;;;17.77;14.17;;;4.20;57.90;;;;;;5093980;28;20423;-57
2022/03/11 04:33:34;;;;;;;22.03;14.87;;;4.00;58.30;;;;;;5093689;28;20454;-57
2022/03/11 04:36:03;;;;;;;23.17;13.97;;;4.00;58.30;;;;;;5093899;28;20447;-57
2022/03/11 04:38:31;;;;;;;21.07;14.90;;;4.00;58.30;;;;;;5093597;28;20483;-57
2022/03/11 04:40:58;;;;;;;18.30;13.83;;;3.90;58.30;;;;;;5093905;28;20779;-57
2022/03/11 04:43:27;;;;;;;19.97;15.60;;;3.90;58.10;;;;;;5093536;28;20964;-57
2022/03/11 04:45:55;;;;;;;18.63;14.37;;;3.90;58.30;;;;;;5093851;28;20781;-57
2022/03/11 04:48:22;;;;;;;16.33;12.53;;;3.90;58.10;;;;;;5093462;28;20802;-57
2022/03/11 04:50:49;;;;;;;19.90;14.80;;;3.80;58.00;;;;;;5093816;28;20534;-57
2022/03/11 04:53:16;;;;;;;20.17;14.97;;;3.80;57.90;;;;;;5093737;28;20505;-57
2022/03/11 04:55:43;;;;;;;21.00;14.70;;;3.70;57.90;;;;;;5093847;28;20462;-57
2022/03/11 04:58:10;;;;;;;20.83;15.00;;;3.80;58.00;;;;;;5093651;28;20848;-57
2022/03/11 05:00:39;;;;;;;21.97;13.47;;;;;;;;;;5093712;28;20454;-57
2022/03/11 05:03:06;;;;;;;18.60;13.20;;;3.70;57.30;;;;;;5096827;28;20447;-57
2022/03/11 05:05:33;;;;;;;17.33;13.50;;;3.60;57.70;;;;;;5097780;28;20494;-58
2022/03/11 05:08:01;;;;;;;21.67;13.57;;;3.60;57.60;;;;;;5097452;28;20459;-57
2022/03/11 05:10:28;;;;;;;21.67;13.37;;;3.60;57.40;;;;;;5097647;28;20443;-57
2022/03/11 05:12:55;;;;;;;22.83;14.17;;;3.70;57.20;;;;;;5097537;28;20479;-57
2022/03/11 05:15:24;;;;;;;14.70;12.50;;;3.70;56.90;;;;;;5097289;28;20930;-57
2022/03/11 05:17:53;;;;;;;17.30;13.53;;;3.60;57.20;;;;;;5097178;28;20551;-57
2022/03/11 05:20:20;;;;;;;17.50;12.33;;;3.60;57.20;;;;;;5097032;28;20534;-57
2022/03/11 05:22:47;;;;;;;17.80;11.87;;;3.60;57.20;;;;;;5097118;28;20921;-57
2022/03/11 05:25:15;;;;;;;23.50;13.10;;;3.70;57.40;;;;;;5097402;28;20538;-57
2022/03/11 05:27:42;;;;;;;18.23;13.97;;;3.50;56.50;;;;;;5096994;28;20555;-57
2022/03/11 05:30:10;;;;;;;13.53;11.10;;;3.60;56.70;;;;;;5096773;28;20976;-58
2022/03/11 05:32:42;;;;;;;18.10;12.53;;;3.50;55.90;;;;;;5096964;28;20841;-57
2022/03/11 05:35:11;;;;;;;18.83;12.23;;;3.50;56.30;;;;;;5098123;28;20774;-57
2022/03/11 05:37:38;;;;;;;16.20;12.93;;;3.50;56.00;;;;;;5097050;28;20467;-57
2022/03/11 05:40:07;;;;;;;13.43;10.10;;;3.50;55.90;;;;;;5096727;28;20541;-57
2022/03/11 05:42:34;;;;;;;14.10;10.47;;;3.50;55.70;;;;;;5096639;28;20944;-57
2022/03/11 05:45:02;;;;;;;17.70;11.00;;;3.40;55.20;;;;;;5096856;28;20455;-57
2022/03/11 05:47:29;;;;;;;15.27;10.90;;;3.40;62.60;;;;;;5096950;28;20463;-57
2022/03/11 05:49:57;;;;;;;12.57;10.00;;;3.30;55.20;;;;;;5096880;28;20568;-57
2022/03/11 05:52:26;;;;;;;18.07;11.03;;;3.30;54.90;;;;;;5096316;28;20478;-57
2022/03/11 05:54:53;;;;;;;13.83;10.70;;;3.30;54.90;;;;;;5096512;28;20487;-56
2022/03/11 05:57:21;;;;;;;14.37;10.10;;;3.30;54.40;;;;;;5096624;28;20478;-57
2022/03/11 05:59:48;;;;;;;16.30;12.03;;;3.40;54.50;;;;;;5096329;28;20961;-56
2022/03/11 06:02:15;;;;;;;10.53;9.30;;;3.40;54.60;;;;;;5096569;28;20443;-57
2022/03/11 06:04:43;;;;;;;12.17;10.20;;;3.40;54.30;;;;;;5096352;28;20427;-57
2022/03/11 06:07:10;;;;;;;12.03;9.97;;;3.40;53.90;;;;;;5096080;28;20557;-58
2022/03/11 06:09:39;;;;;;;12.10;9.23;;;3.40;54.20;;;;;;5096053;28;20447;-57
2022/03/11 06:12:07;;;;;;;13.37;9.40;;;3.40;54.00;;;;;;5096260;28;20475;-56
2022/03/11 06:14:34;;;;;;;11.30;9.27;;;3.40;53.50;;;;;;5095287;28;20718;-57
2022/03/11 06:17:01;;;;;;;18.23;10.50;;;3.30;53.40;;;;;;5095914;28;20988;-57
2022/03/11 06:19:28;;;;;;;15.87;10.43;;;3.40;54.00;;;;;;5095926;28;20432;-57
2022/03/11 06:21:57;;;;;;;10.80;8.40;;;3.50;53.20;;;;;;5096062;28;20798;-56
2022/03/11 06:24:24;;;;;;;13.23;9.37;;;3.40;52.90;;;;;;5095737;28;20451;-56
2022/03/11 06:26:53;;;;;;;13.60;9.20;;;3.50;53.30;;;;;;5095739;28;20471;-57
2022/03/11 06:29:20;;;;;;;10.13;8.73;;;3.50;52.90;;;;;;5095676;28;20842;-57
2022/03/11 06:31:47;;;;;;;15.10;9.13;;;3.50;52.90;;;;;;5096222;28;20542;-57
2022/03/11 06:34:14;;;;;;;11.30;8.70;;;3.50;52.30;;;;;;5095885;28;20443;-56
2022/03/11 06:36:42;;;;;;;15.57;10.63;;;3.50;52.30;;;;;;5095848;28;20467;-56
2022/03/11 06:39:14;;;;;;;15.00;9.90;;;3.50;52.30;;;;;;5096602;28;20451;-59
2022/03/11 06:41:42;;;;;;;9.40;7.67;;;3.60;53.00;;;;;;5095486;28;20443;-57
2022/03/11 06:44:11;;;;;;;13.40;9.30;;;3.60;52.20;;;;;;5095501;28;20513;-56
2022/03/11 06:46:38;;;;;;;11.97;8.47;;;3.60;52.70;;;;;;5095164;28;20559;-56
2022/03/11 06:49:05;;;;;;;15.83;9.90;;;3.60;52.40;;;;;;5095373;28;20431;-56
2022/03/11 06:51:33;;;;;;;17.77;8.70;;;3.60;52.40;;;;;;5095137;28;20451;-56
2022/03/11 06:54:00;;;;;;;10.13;7.77;;;3.70;52.40;;;;;;5095023;28;20533;-56
2022/03/11 06:56:27;;;;;;;13.30;8.20;;;3.60;51.30;;;;;;5095066;28;20479;-57
2022/03/11 06:58:55;;;;;;;19.63;8.37;;;3.60;52.20;;;;;;5094985;28;20448;-56
2022/03/11 07:01:24;;;;;;;10.67;9.10;;;3.60;51.60;;;;;;5095319;28;20474;-57
2022/03/11 07:03:52;;;;;;;14.57;8.33;;;3.70;51.50;;;;;;5095031;28;20942;-57
2022/03/11 07:06:19;;;;;;;8.73;7.20;;;3.70;51.70;;;;;;5095215;28;20467;-57
2022/03/11 07:08:46;;;;;;;14.47;8.60;;;3.70;51.30;;;;;;5095269;28;20443;-57
2022/03/11 07:11:13;;;;;;;9.67;7.80;;;3.70;51.00;;;;;;5095048;28;20447;-57
2022/03/11 07:13:40;;;;;;;10.90;7.97;;;3.50;50.60;;;;;;5094809;28;20475;-57
2022/03/11 07:16:09;;;;;;;9.23;7.60;;;3.70;50.90;;;;;;5094707;28;20452;-57
2022/03/11 07:18:37;;;;;;;10.57;7.87;;;3.80;51.30;;;;;;5094761;28;20454;-57
2022/03/11 07:21:04;;;;;;;18.53;8.60;;;3.80;51.30;;;;;;5094700;28;20948;-57
2022/03/11 07:23:31;;;;;;;10.27;8.00;;;3.80;50.90;;;;;;5094691;28;20930;-57
2022/03/11 07:25:59;;;;;;;12.27;8.60;;;3.90;51.30;;;;;;5094892;28;20554;-57
2022/03/11 07:28:27;;;;;;;9.53;8.40;;;4.00;51.00;;;;;;5094538;28;20465;-56
2022/03/11 07:30:54;;;;;;;11.03;8.13;;;3.90;51.00;;;;;;5094805;28;20434;-57
2022/03/11 07:33:21;;;;;;;11.63;8.13;;;4.00;50.90;;;;;;5094157;28;20999;-57
2022/03/11 07:35:50;;;;;;;10.83;6.80;;;4.00;51.30;;;;;;5094630;28;20779;-57
2022/03/11 07:38:17;;;;;;;11.70;7.50;;;4.00;51.00;;;;;;5094521;28;20463;-57
2022/03/11 07:40:44;;;;;;;14.33;8.60;;;4.00;50.50;;;;;;5094615;28;20447;-57
2022/03/11 07:43:13;;;;;;;11.97;8.80;;;4.10;50.70;;;;;;5094163;28;20447;-57
2022/03/11 07:45:40;;;;;;;14.10;8.50;;;4.10;50.40;;;;;;5095395;28;20443;-57
2022/03/11 07:48:07;;;;;;;9.63;7.80;;;4.20;51.00;;;;;;5094794;28;20454;-56
2022/03/11 07:50:35;;;;;;;9.40;7.27;;;4.30;50.40;;;;;;5094058;28;20447;-57
2022/03/11 07:53:04;;;;;;;14.90;7.27;;;4.40;50.70;;;;;;5093968;28;20486;-57
2022/03/11 07:55:31;;;;;;;19.13;8.80;;;4.50;51.30;;;;;;5094305;28;20494;-56
2022/03/11 07:57:58;;;;;;;11.10;8.10;;;4.40;51.00;;;;;;5094065;28;20471;-56
2022/03/11 08:00:26;;;;;;;12.40;8.20;;;4.40;51.30;;;;;;5094010;28;20490;-56
2022/03/11 08:02:53;;;;;;;9.70;8.70;;;4.30;51.20;;;;;;5093742;28;20471;-57
2022/03/11 08:05:20;;;;;;;11.27;8.70;;;4.50;51.80;;;;;;5093785;28;20887;-57
2022/03/11 08:07:49;;;;;;;12.23;9.13;;;4.60;51.10;;;;;;5094084;28;20475;-56
2022/03/11 08:10:18;;;;;;;12.80;8.87;;;4.70;50.70;;;;;;5093589;28;20447;-57
2022/03/11 08:12:45;;;;;;;14.20;10.27;;;4.80;51.20;;;;;;5094206;28;21078;-57
2022/03/11 08:15:12;;;;;;;15.87;9.80;;;4.80;52.10;;;;;;5093716;28;21061;-57
2022/03/11 08:17:41;;;;;;;12.60;10.60;;;4.80;50.70;;;;;;5093546;28;20467;-56
2022/03/11 08:20:09;;;;;;;11.23;10.00;;;4.90;50.80;;;;;;5093881;28;20845;-57
2022/03/11 08:22:37;;;;;;;11.90;9.37;;;4.90;51.10;;;;;;5093963;28;20451;-57
2022/03/11 08:25:08;;;;;;;11.77;8.77;;;5.00;51.40;;;;;;5093645;28;20505;-56
2022/03/11 08:27:36;;;;;;;10.63;8.90;;;5.10;56.40;;;;;;5093961;28;20468;-56
2022/03/11 08:30:05;;;;;;;14.10;9.93;;;5.20;52.50;;;;;;5093363;28;20475;-56
2022/03/11 08:32:32;;;;;;;12.43;9.70;;;5.20;51.20;;;;;;5093448;28;20446;-56
2022/03/11 08:34:59;;;;;;;16.00;11.67;;;5.20;51.30;;;;;;5093453;28;20471;-56
2022/03/11 08:37:26;;;;;;;12.77;9.60;;;5.20;51.30;;;;;;5093111;28;20456;-56
2022/03/11 08:39:54;;;;;;;17.67;10.40;;;5.40;51.70;;;;;;5093667;28;20822;-56
2022/03/11 08:42:21;;;;;;;16.37;10.57;;;5.50;51.10;;;;;;5093490;28;20522;-57
2022/03/11 08:44:49;;;;;;;11.63;9.67;;;5.50;51.10;;;;;;5093181;28;20454;-57
2022/03/11 08:47:17;;;;;;;12.13;10.27;;;5.60;51.20;;;;;;5093125;28;20482;-57
2022/03/11 08:49:44;;;;;;;12.87;9.87;;;5.70;51.80;;;;;;5093539;28;20448;-57
2022/03/11 08:52:11;;;;;;;13.73;11.07;;;5.60;51.50;;;;;;5092961;28;20444;-57
2022/03/11 08:54:38;;;;;;;12.17;10.93;;;5.60;51.90;;;;;;5092917;28;20489;-57
2022/03/11 08:57:05;;;;;;;13.70;11.07;;;5.60;51.90;;;;;;5093322;28;20467;-57
2022/03/11 08:59:32;;;;;;;13.70;9.60;;;5.70;51.80;;;;;;5093553;28;20443;-57
2022/03/11 09:02:01;;;;;;;15.43;11.00;;;5.90;51.60;;;;;;5093962;28;20447;-57
2022/03/11 09:04:28;;;;;;;14.33;9.67;;;5.90;51.00;;;;;;5093044;28;20451;-55
2022/03/11 09:06:55;;;;;;;13.93;10.53;;;5.90;50.90;;;;;;5093349;28;20553;-56
2022/03/11 09:09:23;;;;;;;16.43;10.80;;;5.90;51.20;;;;;;5093409;28;20447;-56
2022/03/11 09:11:50;;;;;;;12.80;10.53;;;6.10;50.90;;;;;;5093264;28;20470;-56
2022/03/11 09:14:18;;;;;;;16.40;10.03;;;6.20;50.80;;;;;;5093185;28;20507;-56
2022/03/11 09:16:45;;;;;;;14.43;9.93;;;6.30;51.00;;;;;;5093247;28;20525;-58
2022/03/11 09:19:14;;;;;;;17.53;10.47;;;6.40;51.60;;;;;;5093155;28;20443;-57
2022/03/11 09:21:41;;;;;;;11.50;10.07;;;6.50;51.20;;;;;;5093232;28;20505;-57
2022/03/11 09:24:09;;;;;;;11.17;9.17;;;6.40;50.70;;;;;;5093302;28;20446;-57
2022/03/11 09:26:36;;;;;;;10.57;8.37;;;6.60;50.20;;;;;;5092847;28;20471;-57
2022/03/11 09:29:03;;;;;;;18.10;9.90;;;6.60;50.50;;;;;;5092724;28;20471;-56
2022/03/11 09:31:30;;;;;;;11.60;9.80;;;6.60;49.70;;;;;;5093993;28;20449;-57
2022/03/11 09:33:58;;;;;;;12.60;9.53;;;6.80;50.40;;;;;;5092638;28;20475;-57
2022/03/11 09:36:26;;;;;;;26.80;10.10;;;7.00;49.70;;;;;;5092758;28;20499;-57
2022/03/11 09:38:54;;;;;;;12.67;8.93;;;7.00;49.80;;;;;;5092766;28;20450;-57
2022/03/11 09:41:22;;;;;;;11.60;9.07;;;7.00;50.30;;;;;;5093055;28;20839;-56
2022/03/11 09:43:49;;;;;;;16.93;9.47;;;6.80;49.40;;;;;;5093087;28;20534;-58
2022/03/11 09:46:17;;;;;;;11.47;8.40;;;7.00;49.70;;;;;;5093008;28;20824;-58
2022/03/11 09:48:44;;;;;;;12.97;9.40;;;7.10;49.30;;;;;;5094803;28;20451;-56
2022/03/11 09:51:12;;;;;;;12.40;8.20;;;7.20;49.30;;;;;;5096448;28;20452;-56
2022/03/11 09:53:42;;;;;;;14.07;9.67;;;7.30;49.20;;;;;;5096563;28;20485;-56
2022/03/11 09:56:09;;;;;;;12.50;9.00;;;7.50;49.00;;;;;;5096501;28;20508;-56
2022/03/11 09:58:36;;;;;;;11.37;9.40;;;8.20;48.60;;;;;;5096322;28;20443;-56
2022/03/11 10:01:05;;;;;;;11.93;10.43;;;8.90;48.10;;;;;;5096371;28;20443;-56
2022/03/11 10:03:33;;;;;;;14.10;9.33;;;9.90;46.90;;;;;;5096402;28;20447;-57
2022/03/11 10:06:00;;;;;;;10.47;9.27;;;10.90;60.20;;;;;;5096295;28;20471;-57
2022/03/11 10:08:34;;;;;;;9.33;8.43;;;11.90;44.00;;;;;;5095938;28;20448;-58
2022/03/11 10:11:18;;;;;;;15.03;9.27;;;12.40;43.70;;;;;;5095923;28;20451;-57
2022/03/11 10:13:46;;;;;;;16.60;10.20;;;12.90;43.70;;;;;;5094108;28;20486;-57
2022/03/11 10:16:20;;;;;;;12.50;8.30;;;12.60;43.30;;;;;;5095837;28;20443;-57
2022/03/11 10:18:56;;;;;;;14.47;11.03;;;12.80;43.60;;;;;;5096137;28;20450;-57
2022/03/11 10:21:28;;;;;;;12.00;9.40;;;13.00;43.20;;;;;;5095750;28;20463;-57
2022/03/11 10:23:55;;;;;;;14.67;10.60;;;13.50;43.30;;;;;;5096347;28;20519;-58
2022/03/11 10:26:35;;;;;;;13.00;9.13;;;14.00;42.60;;;;;;5095963;28;20475;-57
2022/03/11 10:29:05;;;;;;;13.23;8.83;;;14.10;41.70;;;;;;5094484;28;20471;-58
2022/03/11 10:31:33;;;;;;;16.17;10.73;;;13.60;41.30;;;;;;5095531;28;20424;-58
2022/03/11 10:34:14;;;;;;;13.20;10.87;;;14.30;43.40;;;;;;5095345;28;20490;-58
2022/03/11 10:36:48;;;;;;;12.90;9.20;;;14.60;41.40;;;;;;5095564;28;20474;-57
2022/03/11 10:39:17;;;;;;;13.67;10.17;;;14.60;41.70;;;;;;5095423;28;20432;-57
2022/03/11 10:41:46;;;;;;;18.10;10.60;;;15.20;41.80;;;;;;5095547;28;20988;-57
2022/03/11 10:44:14;;;;;;;13.63;10.10;;;15.40;41.30;;;;;;5095235;28;20535;-57
2022/03/11 10:46:41;;;;;;;20.80;10.67;;;15.80;41.80;;;;;;5095422;28;20464;-57
2022/03/11 10:49:08;;;;;;;12.13;10.93;;;15.70;41.50;;;;;;5095066;28;20450;-57
2022/03/11 10:51:38;;;;;;;12.10;10.40;;;15.70;40.30;;;;;;5095180;28;20449;-57
2022/03/11 10:54:07;;;;;;;16.60;11.40;;;16.10;41.40;;;;;;5095037;28;21013;-58
2022/03/11 10:56:36;;;;;;;11.97;9.27;;;15.90;40.00;;;;;;5095376;28;20467;-56
2022/03/11 10:59:14;;;;;;;18.57;11.23;;;16.10;40.30;;;;;;5095027;28;20451;-56
2022/03/11 11:01:42;;;;;;;13.13;10.73;;;15.60;39.70;;;;;;5094946;28;20430;-56
2022/03/11 11:04:11;;;;;;;14.07;11.10;;;16.40;40.90;;;;;;5094820;28;20445;-56
2022/03/11 11:06:39;;;;;;;15.53;9.33;;;16.60;42.70;;;;;;5095063;28;20494;-57
2022/03/11 11:09:08;;;;;;;11.80;10.40;;;16.30;40.80;;;;;;5095103;28;20443;-56
2022/03/11 11:11:36;;;;;;;12.80;9.40;;;16.90;44.60;;;;;;5094989;28;20526;-56
2022/03/11 11:14:05;;;;;;;14.87;9.87;;;;;;;;;;5094652;28;20475;-56
2022/03/11 11:16:39;;;;;;;12.20;10.37;;;16.90;39.50;;;;;;5094758;28;20468;-56
2022/03/11 11:19:09;;;;;;;16.93;9.30;;;17.60;41.30;;;;;;5094444;28;20447;-56
2022/03/11 11:21:37;;;;;;;11.20;9.17;;;18.00;42.70;;;;;;5094342;28;20440;-57
2022/03/11 11:24:11;;;;;;;11.60;10.40;;;18.10;39.60;;;;;;5094377;28;20977;-56
2022/03/11 11:26:41;;;;;;;11.97;10.30;;;17.90;39.70;;;;;;5094316;28;20459;-56
2022/03/11 11:29:10;;;;;;;12.77;10.43;;;18.00;39.70;;;;;;5094474;28;20478;-56
2022/03/11 11:31:41;;;;;;;14.93;8.87;;;18.70;39.80;;;;;;5094736;28;20485;-56
2022/03/11 11:34:24;;;;;;;14.73;10.30;;;18.80;40.00;;;;;;5094293;28;20829;-57
2022/03/11 11:36:52;;;;;;;15.33;10.70;;;18.70;38.40;;;;;;5094125;28;20934;-57
2022/03/11 11:39:19;;;;;;;11.87;9.03;;;18.30;37.70;;;;;;5094409;28;20454;-58
2022/03/11 11:41:53;;;;;;;12.63;10.07;;;18.60;38.60;;;;;;5094404;28;20455;-57
2022/03/11 11:44:32;;;;;;;14.03;10.73;;;18.00;39.00;;;;;;5094131;28;20430;-57
2022/03/11 11:47:16;;;;;;;11.77;10.53;;;17.90;39.50;;;;;;5094333;28;20463;-57
2022/03/11 11:49:48;;;;;;;14.10;10.67;;;18.00;39.70;;;;;;5094785;28;20435;-57
2022/03/11 11:52:29;;;;;;;13.30;10.30;;;17.60;38.70;;;;;;5094632;28;20439;-57
2022/03/11 11:55:14;;;;;;;13.10;11.20;;;17.40;38.80;;;;;;5094094;28;20487;-56
2022/03/11 11:57:42;;;;;;;15.73;10.23;;;17.80;38.90;;;;;;5094228;28;20466;-57
2022/03/11 12:00:34;;;;;;;12.60;10.33;;;18.30;38.60;;;;;;5094083;28;20443;-56
2022/03/11 12:03:04;;;;;;;11.87;9.20;;;18.50;39.10;;;;;;5093938;28;20790;-57
2022/03/11 12:05:45;;;;;;;12.73;10.07;;;18.50;38.20;;;;;;5093844;28;20524;-57
2022/03/11 12:08:51;;;;;;;12.53;9.80;;;18.60;39.00;;;;;;5093486;28;20463;-57
2022/03/11 12:11:42;;;;;;;13.90;10.80;;;17.80;38.10;;;;;;5092679;28;20796;-57
2022/03/11 12:14:09;;;;;;;12.37;10.13;;;17.80;38.50;;;;;;5092110;28;20483;-57
2022/03/11 12:17:05;;;;;;;15.23;10.60;;;18.00;39.00;;;;;;5091657;28;20861;-57
2022/03/11 12:19:41;;;;;;;14.03;10.73;;;;;;;;;;5093158;28;20451;-57
2022/03/11 12:22:31;;;;;;;15.33;10.13;;;17.70;38.90;;;;;;5094305;28;20874;-57
2022/03/11 12:25:00;;;;;;;12.70;9.90;;;17.60;38.20;;;;;;5098015;28;20478;-57
2022/03/11 12:27:59;;;;;;;12.90;10.40;;;18.50;39.50;;;;;;5103271;28;20474;-57
2022/03/11 12:30:26;;;;;;;12.30;10.37;;;18.20;38.90;;;;;;5093323;28;20475;-57
2022/03/11 12:32:53;;;;;;;13.53;10.73;;;18.50;39.20;;;;;;5094230;28;20520;-57
2022/03/11 12:35:23;;;;;;;16.20;10.80;;;18.30;38.30;;;;;;5090931;28;20482;-57
2022/03/11 12:37:50;;;;;;;13.00;10.63;;;18.40;39.80;;;;;;5091707;28;20498;-57
2022/03/11 12:40:21;;;;;;;14.53;10.43;;;18.60;39.50;;;;;;5091944;28;20455;-57
2022/03/11 12:42:48;;;;;;;19.30;11.20;;;18.90;38.20;;;;;;5095259;28;20451;-57
2022/03/11 12:45:34;;;;;;;15.57;10.63;;;18.60;39.10;;;;;;5111223;28;20776;-56
2022/03/11 12:48:01;;;;;;;12.53;10.83;;;18.70;37.80;;;;;;5112789;28;20583;-57
2022/03/11 12:50:30;;;;;;;14.00;11.27;;;18.90;39.10;;;;;;5113893;28;20481;-57